Station Historical Data
Daily Summary for November 23, 2017 Units:  Metric    English   Both
« Previous Day
Next Day »
Daily Weekly Monthly Yearly Custom
  High: Low: Average:
Temperature: 15.4 °C 2.8 °C 8.2 °C
Dew Point: 4.4 °C -1.8 °C 1.6 °C
Humidity: 88% 38% 66%
Wind Speed: 9.3km/h 0km/h 1.6km/h
Wind Gust: 9.3km/h - -
Wind- - West
Pressure: 1020.5 hPa 1016.8 hPa -
Precipitation: 0 mm    
Historical Graphs
 
 
Tabular Data for November 23, 2017
Time Temperature Dew Point Pressure Wind Wind Speed Wind Gust Humidity Rainfall Rate (Hourly) solar Conditions
00:01 4.8 °C 0.4 °C 1020.2 hPa Calm     73% 0 mm WeatherDisplay:10.37 W/m2 BKN
00:06 4.8 °C 0.6 °C 1020.2 hPa Calm     74% 0 mm WeatherDisplay:10.37 W/m2 CLR
00:11 4.7 °C 0.6 °C 1020.2 hPa Calm     75% 0 mm WeatherDisplay:10.37 W/m2 CLR
00:26 4.4 °C 0.7 °C 1020.2 hPa Calm     77% 0 mm WeatherDisplay:10.37 W/m2 CLR
00:31 4.3 °C 0.4 °C 1020.2 hPa Calm     76% 0 mm WeatherDisplay:10.37 W/m2 CLR
00:41 4.1 °C 0.4 °C 1020.2 hPa Calm     77% 0 mm WeatherDisplay:10.37 W/m2 CLR
00:51 3.9 °C 0.4 °C 1020.5 hPa Calm     78% 0 mm WeatherDisplay:10.37 W/m2 CLR
00:56 3.8 °C 0.3 °C 1020.2 hPa Calm     78% 0 mm WeatherDisplay:10.37 W/m2 CLR
01:07 3.7 °C 0.2 °C 1020.2 hPa North 1.9 km/h   78% 0 mm WeatherDisplay:10.37 W/m2 CLR
01:12 3.8 °C 0.4 °C 1020.2 hPa North 1.9 km/h   79% 0 mm WeatherDisplay:10.37 W/m2 CLR
01:27 3.8 °C 0.7 °C 1019.9 hPa Calm     80% 0 mm WeatherDisplay:10.37 W/m2 CLR
01:32 3.7 °C 0.6 °C 1019.9 hPa Calm     80% 0 mm WeatherDisplay:10.37 W/m2 CLR
01:37 3.7 °C 0.6 °C 1019.9 hPa Calm     80% 0 mm WeatherDisplay:10.37 W/m2 CLR
01:42 3.8 °C 0.4 °C 1019.9 hPa Calm     79% 0 mm WeatherDisplay:10.37 W/m2 CLR
01:47 3.8 °C 0.5 °C 1019.9 hPa Calm     79% 0 mm WeatherDisplay:10.37 W/m2 CLR
01:52 3.8 °C 0.7 °C 1020.2 hPa North 1.9 km/h   80% 0 mm WeatherDisplay:10.37 W/m2 CLR
01:57 3.7 °C 0.4 °C 1020.2 hPa NW 1.9 km/h   79% 0 mm WeatherDisplay:10.37 W/m2 CLR
02:02 3.7 °C 0.4 °C 1020.2 hPa NNW 1.9 km/h   79% 0 mm WeatherDisplay:10.37 W/m2 CLR
02:07 3.8 °C 0.3 °C 1020.2 hPa Calm     78% 0 mm WeatherDisplay:10.37 W/m2 CLR
02:13 3.8 °C 0.5 °C 1020.2 hPa Calm     79% 0 mm WeatherDisplay:10.37 W/m2 CLR
02:18 3.7 °C 0.6 °C 1020.2 hPa Calm     80% 0 mm WeatherDisplay:10.37 W/m2 CLR
02:23 3.6 °C 0.6 °C 1019.9 hPa Calm     81% 0 mm WeatherDisplay:10.37 W/m2 CLR
02:28 3.4 °C 0.4 °C 1019.9 hPa Calm     81% 0 mm WeatherDisplay:10.37 W/m2 CLR
02:33 3.3 °C 0.3 °C 1019.9 hPa Calm     81% 0 mm WeatherDisplay:10.37 W/m2 CLR
02:38 3.2 °C 0.3 °C 1019.9 hPa Calm     81% 0 mm WeatherDisplay:10.37 W/m2 CLR
02:43 3.2 °C 0.2 °C 1019.9 hPa Calm     81% 0 mm WeatherDisplay:10.37 W/m2 CLR
02:48 3.1 °C 0.3 °C 1019.9 hPa Calm     82% 0 mm WeatherDisplay:10.37 W/m2 CLR
02:53 3.1 °C 0.3 °C 1019.9 hPa Calm     82% 0 mm WeatherDisplay:10.37 W/m2 CLR
03:04 3 °C 0.4 °C 1019.9 hPa Calm     83% 0 mm WeatherDisplay:10.37 W/m2 CLR
03:09 2.9 °C 0.3 °C 1019.9 hPa Calm     83% 0 mm WeatherDisplay:10.37 W/m2 CLR
03:14 3.1 °C 0.6 °C 1019.9 hPa Calm     84% 0 mm WeatherDisplay:10.37 W/m2 CLR
03:19 3.4 °C 0.9 °C 1019.9 hPa Calm     84% 0 mm WeatherDisplay:10.37 W/m2 CLR
03:24 3.4 °C 0.8 °C 1019.9 hPa Calm     83% 0 mm WeatherDisplay:10.37 W/m2 CLR
03:39 3.1 °C 0.7 °C 1019.5 hPa Calm     84% 0 mm WeatherDisplay:10.37 W/m2 CLR
03:49 3 °C 0.6 °C 1019.5 hPa Calm     84% 0 mm WeatherDisplay:10.37 W/m2 CLR
03:54 2.9 °C 0.7 °C 1019.5 hPa Calm     85% 0 mm WeatherDisplay:10.37 W/m2 CLR
03:59 2.9 °C 0.6 °C 1019.5 hPa Calm     85% 0 mm WeatherDisplay:10.37 W/m2 CLR
04:04 2.8 °C 0.6 °C 1019.5 hPa Calm     85% 0 mm WeatherDisplay:10.37 W/m2 CLR
04:10 2.8 °C 0.7 °C 1019.5 hPa Calm     86% 0 mm WeatherDisplay:10.37 W/m2 CLR
04:15 2.9 °C 0.7 °C 1019.5 hPa Calm     85% 0 mm WeatherDisplay:10.37 W/m2 CLR
04:20 3.3 °C 0.7 °C 1019.5 hPa Calm     83% 0 mm WeatherDisplay:10.37 W/m2 CLR
04:25 3.4 °C 0.8 °C 1019.2 hPa Calm     83% 0 mm WeatherDisplay:10.37 W/m2 CLR
04:30 3.4 °C 0.7 °C 1019.2 hPa Calm     82% 0 mm WeatherDisplay:10.37 W/m2 CLR
04:41 3.7 °C 0.6 °C 1019.2 hPa Calm     80% 0 mm WeatherDisplay:10.37 W/m2 CLR
04:46 3.8 °C 0.2 °C 1019.2 hPa Calm     77% 0 mm WeatherDisplay:10.37 W/m2 CLR
04:51 4.3 °C 0.1 °C 1019.2 hPa Calm     74% 0 mm WeatherDisplay:10.37 W/m2 CLR
04:56 4.5 °C 0.3 °C 1019.2 hPa Calm     74% 0 mm WeatherDisplay:10.37 W/m2 CLR
04:58 4.5 °C 0.3 °C 1019.2 hPa Calm     74% 0 mm WeatherDisplay:10.37 W/m2 CLR
05:03 4.6 °C 0.4 °C 1019.5 hPa Calm     74% 0 mm WeatherDisplay:10.37 W/m2 CLR
05:14 4.8 °C 0.2 °C 1019.5 hPa Calm     72% 0 mm WeatherDisplay:10.37 W/m2 CLR
05:29 5.1 °C 0.1 °C 1019.5 hPa Calm     70% 0 mm WeatherDisplay:10.37 W/m2 CLR
05:34 5.2 °C 0.2 °C 1019.5 hPa Calm     70% 0 mm WeatherDisplay:10.37 W/m2 CLR
05:39 5.3 °C 0.1 °C 1019.5 hPa Calm     69% 0 mm WeatherDisplay:10.37 W/m2 CLR
05:44 5.2 °C -0.1 °C 1019.5 hPa Calm     69% 0 mm WeatherDisplay:10.37 W/m2 CLR
05:49 5.2 °C -0.1 °C 1019.5 hPa Calm     69% 0 mm WeatherDisplay:10.37 W/m2 CLR
06:00 5.2 °C -0.1 °C 1019.5 hPa Calm     69% 0 mm WeatherDisplay:10.37 W/m2 CLR
06:05 5.1 °C -0.2 °C 1019.5 hPa Calm     69% 0 mm WeatherDisplay:10.37 W/m2 CLR
06:10 5 °C -0.2 °C 1019.5 hPa Calm     69% 0 mm WeatherDisplay:10.37 W/m2 CLR
06:15 4.9 °C -0.1 °C 1019.5 hPa Calm     70% 0 mm WeatherDisplay:10.37 W/m2 CLR
06:25 4.8 °C -0.4 °C 1019.5 hPa Calm     69% 0 mm WeatherDisplay:10.37 W/m2 CLR
06:30 4.8 °C -0.4 °C 1019.9 hPa Calm     69% 0 mm WeatherDisplay:10.37 W/m2 CLR
06:35 4.9 °C -0.5 °C 1019.9 hPa Calm     68% 0 mm WeatherDisplay:10.37 W/m2 CLR
06:45 5 °C -0.2 °C 1019.9 hPa NNE 1.9 km/h   69% 0 mm WeatherDisplay:10.37 W/m2 CLR
06:50 5.1 °C -0.2 °C 1019.9 hPa WNW 1.9 km/h   69% 0 mm WeatherDisplay:10.37 W/m2 CLR
07:00 5.2 °C -0.3 °C 1019.9 hPa West 1.9 km/h   68% 0 mm WeatherDisplay:10.37 W/m2 CLR
07:05 5.1 °C -0.3 °C 1019.9 hPa West 1.9 km/h 1.9 km/h 68% 0 mm WeatherDisplay:10.37 W/m2 CLR
07:10 5.2 °C -0.6 °C 1019.5 hPa West 1.9 km/h   66% 0 mm WeatherDisplay:10.37 W/m2 CLR
07:15 5.4 °C -0.7 °C 1019.5 hPa West 1.9 km/h   65% 0 mm WeatherDisplay:10.37 W/m2 CLR
07:21 5.4 °C -0.7 °C 1019.9 hPa West 1.9 km/h   65% 0 mm WeatherDisplay:10.37 W/m2 CLR
07:26 5.4 °C -0.4 °C 1019.9 hPa West 1.9 km/h   66% 0 mm WeatherDisplay:10.37 W/m2 CLR
07:31 5.3 °C -0.5 °C 1019.9 hPa West 1.9 km/h   66% 0 mm WeatherDisplay:10.37 W/m2 CLR
07:36 5.5 °C -0.8 °C 1019.9 hPa West 3.7 km/h 3.7 km/h 64% 0 mm WeatherDisplay:10.37 W/m2 CLR
07:41 5.6 °C -0.7 °C 1019.9 hPa West 3.7 km/h 3.7 km/h 64% 0 mm WeatherDisplay:10.37 W/m2 CLR
07:50 5.6 °C -0.7 °C 1019.9 hPa West 1.9 km/h   64% 0 mm WeatherDisplay:10.37 W/m2 CLR
07:56 5.7 °C -0.6 °C 1019.9 hPa West 1.9 km/h 1.9 km/h 64% 0 mm WeatherDisplay:10.37 W/m2 CLR
08:01 5.7 °C -0.6 °C 1019.9 hPa West 3.7 km/h 3.7 km/h 64% 0 mm WeatherDisplay:10.37 W/m2 CLR
08:06 5.8 °C -0.7 °C 1019.9 hPa West 3.7 km/h 3.7 km/h 63% 0 mm WeatherDisplay:10.37 W/m2 CLR
08:11 5.9 °C -0.6 °C 1019.9 hPa West 3.7 km/h 3.7 km/h 63% 0 mm WeatherDisplay:10.37 W/m2 CLR
08:16 6.1 °C -0.7 °C 1020.2 hPa West 3.7 km/h 3.7 km/h 62% 0 mm WeatherDisplay:10.37 W/m2 CLR
08:26 6.3 °C -0.4 °C 1020.2 hPa West 9.3 km/h 9.3 km/h 62% 0 mm WeatherDisplay:10.37 W/m2 CLR
08:31 6.4 °C -0.3 °C 1020.2 hPa West 9.3 km/h   62% 0 mm WeatherDisplay:10.37 W/m2 CLR
08:36 6.6 °C -0.2 °C 1020.2 hPa West 5.6 km/h   62% 0 mm WeatherDisplay:10.37 W/m2 CLR
08:41 6.7 °C -0.3 °C 1020.2 hPa West 3.7 km/h   61% 0 mm WeatherDisplay:10.37 W/m2 CLR
08:46 6.9 °C -0.1 °C 1020.2 hPa WSW 3.7 km/h   61% 0 mm WeatherDisplay:10.37 W/m2 CLR
08:56 7.6 °C 0.1 °C 1020.2 hPa West 3.7 km/h   59% 0 mm WeatherDisplay:10.37 W/m2 CLR
09:01 7.8 °C -0.2 °C 1020.2 hPa WNW 3.7 km/h 3.7 km/h 57% 0 mm WeatherDisplay:10.37 W/m2 CLR
09:07 8 °C 0 °C 1020.2 hPa WNW 3.7 km/h   57% 0 mm WeatherDisplay:10.37 W/m2 CLR
09:12 8.2 °C 0.2 °C 1020.5 hPa West 5.6 km/h 5.6 km/h 57% 0 mm WeatherDisplay:10.37 W/m2 CLR
09:17 8.2 °C 0.2 °C 1020.2 hPa West 5.6 km/h   57% 0 mm WeatherDisplay:10.37 W/m2 CLR
09:22 8.2 °C -0.1 °C 1020.2 hPa West 3.7 km/h 3.7 km/h 56% 0 mm WeatherDisplay:10.37 W/m2 FEW
09:27 8.3 °C 0.2 °C 1020.2 hPa West 1.9 km/h   57% 0 mm WeatherDisplay:10.37 W/m2 FEW
09:32 8.4 °C 0.2 °C 1020.2 hPa WSW 1.9 km/h 1.9 km/h 56% 0 mm WeatherDisplay:10.37 W/m2 SCT
09:42 8.6 °C 0.1 °C 1020.5 hPa West 3.7 km/h 3.7 km/h 55% 0 mm WeatherDisplay:10.37 W/m2 SCT
09:57 8.9 °C 0.1 °C 1020.5 hPa West 5.6 km/h   54% 0 mm WeatherDisplay:10.37 W/m2 SCT
10:08 9.1 °C -0.2 °C 1020.5 hPa WNW 5.6 km/h 5.6 km/h 52% 0 mm WeatherDisplay:10.37 W/m2 BKN
10:13 9.3 °C -1.2 °C 1020.5 hPa WNW 7.4 km/h 7.4 km/h 48% 0 mm WeatherDisplay:10.37 W/m2 BKN
10:18 9.4 °C -0.8 °C 1020.5 hPa West 7.4 km/h 7.4 km/h 49% 0 mm WeatherDisplay:10.37 W/m2 BKN
10:28 9.9 °C -1.5 °C 1020.5 hPa West 3.7 km/h 3.7 km/h 45% 0 mm WeatherDisplay:10.37 W/m2 BKN
10:33 10.4 °C -0.7 °C 1020.5 hPa West 7.4 km/h 7.4 km/h 46% 0 mm WeatherDisplay:10.37 W/m2 BKN
10:38 10.9 °C -0.6 °C 1020.5 hPa WNW 7.4 km/h 7.4 km/h 45% 0 mm WeatherDisplay:10.37 W/m2 BKN
10:53 11.4 °C -1.8 °C 1020.2 hPa West 5.6 km/h 5.6 km/h 40% 0 mm WeatherDisplay:10.37 W/m2 BKN
10:58 11.4 °C -0.1 °C 1020.2 hPa West 7.4 km/h   45% 0 mm WeatherDisplay:10.37 W/m2 BKN
11:03 11.8 °C -0.4 °C 1019.9 hPa West 7.4 km/h 7.4 km/h 43% 0 mm WeatherDisplay:10.37 W/m2 CLR
11:13 12.2 °C -0.4 °C 1019.9 hPa West 3.7 km/h 3.7 km/h 42% 0 mm WeatherDisplay:10.37 W/m2 CLR
11:19 12.2 °C -1.4 °C 1019.9 hPa West 3.7 km/h 3.7 km/h 39% 0 mm WeatherDisplay:10.37 W/m2 CLR
11:29 12.1 °C -0.8 °C 1019.5 hPa West 7.4 km/h 7.4 km/h 41% 0 mm WeatherDisplay:10.37 W/m2 CLR
11:39 12.3 °C -0.2 °C 1019.2 hPa West 5.6 km/h 5.6 km/h 42% 0 mm WeatherDisplay:10.37 W/m2 CLR
11:44 12.6 °C -0.1 °C 1019.2 hPa West 3.7 km/h 3.7 km/h 42% 0 mm WeatherDisplay:10.37 W/m2 CLR
11:49 12.8 °C -0.2 °C 1019.2 hPa WNW 7.4 km/h   41% 0 mm WeatherDisplay:10.37 W/m2 CLR
11:59 12.9 °C -0.7 °C 1018.8 hPa West 3.7 km/h 3.7 km/h 39% 0 mm WeatherDisplay:10.37 W/m2 CLR
12:04 13.1 °C 0.4 °C 1018.8 hPa West 3.7 km/h 3.7 km/h 42% 0 mm WeatherDisplay:10.37 W/m2 CLR
12:09 13.2 °C -0.5 °C 1018.8 hPa WNW 3.7 km/h 3.7 km/h 39% 0 mm WeatherDisplay:10.37 W/m2 CLR
12:14 13.3 °C 0 °C 1018.5 hPa WNW 3.7 km/h 3.7 km/h 40% 0 mm WeatherDisplay:10.37 W/m2 CLR
12:30 13.8 °C 0.4 °C 1018.5 hPa SW 3.7 km/h 3.7 km/h 40% 0 mm WeatherDisplay:10.37 W/m2 CLR
12:35 14 °C 0.2 °C 1018.2 hPa Calm   3.2 km/h 39% 0 mm WeatherDisplay:10.37 W/m2 CLR
12:40 14.4 °C 0.6 °C 1018.2 hPa Calm   1.6 km/h 39% 0 mm WeatherDisplay:10.37 W/m2 CLR
12:50 14.6 °C 0.7 °C 1018.2 hPa WSW 3.7 km/h 3.7 km/h 39% 0 mm WeatherDisplay:10.37 W/m2 CLR
12:55 14.3 °C 0.6 °C 1018.2 hPa WNW 3.7 km/h 3.7 km/h 39% 0 mm WeatherDisplay:10.37 W/m2 CLR
13:00 14.3 °C 0.1 °C 1018.2 hPa West 3.7 km/h 3.7 km/h 38% 0 mm WeatherDisplay:10.37 W/m2 CLR
13:05 14.4 °C 0.3 °C 1018.2 hPa West 5.6 km/h 5.6 km/h 38% 0 mm WeatherDisplay:10.37 W/m2 BKN
13:10 14.5 °C 0.7 °C 1018.2 hPa West 5.6 km/h 5.6 km/h 39% 0 mm WeatherDisplay:10.37 W/m2 BKN
13:15 14.7 °C 0.8 °C 1017.8 hPa WSW 3.7 km/h 3.7 km/h 39% 0 mm WeatherDisplay:10.37 W/m2 BKN
13:20 14.8 °C 1 °C 1017.8 hPa WSW 3.7 km/h   39% 0 mm WeatherDisplay:10.37 W/m2 BKN
13:25 14.8 °C 0.6 °C 1017.8 hPa West 1.9 km/h 1.9 km/h 38% 0 mm WeatherDisplay:10.37 W/m2 BKN
13:30 14.7 °C 1.2 °C 1017.8 hPa West 1.9 km/h 1.9 km/h 40% 0 mm WeatherDisplay:10.37 W/m2 BKN
13:36 14.7 °C 0.6 °C 1017.8 hPa West 1.9 km/h 1.9 km/h 38% 0 mm WeatherDisplay:10.37 W/m2 BKN
13:41 14.7 °C 1.9 °C 1017.8 hPa WSW 3.7 km/h   42% 0 mm WeatherDisplay:10.37 W/m2 BKN
13:51 14.7 °C 1.2 °C 1017.8 hPa WNW 5.6 km/h 5.6 km/h 40% 0 mm WeatherDisplay:10.37 W/m2 BKN
13:56 14.8 °C 1.7 °C 1017.8 hPa West 3.7 km/h   41% 0 mm WeatherDisplay:10.37 W/m2 BKN
14:06 15.2 °C 2.3 °C 1017.5 hPa SSW 3.7 km/h 3.7 km/h 42% 0 mm WeatherDisplay:10.37 W/m2 BKN
14:11 15.1 °C 1.9 °C 1017.5 hPa SSE 3.7 km/h 3.7 km/h 41% 0 mm WeatherDisplay:10.37 W/m2 BKN
14:16 15 °C 2.5 °C 1017.5 hPa ESE 3.7 km/h   43% 0 mm WeatherDisplay:10.37 W/m2 BKN
14:26 14.9 °C 2.4 °C 1017.5 hPa NNE 1.9 km/h 1.9 km/h 43% 0 mm WeatherDisplay:10.37 W/m2 BKN
14:31 14.8 °C 2.1 °C 1017.5 hPa WNW 3.7 km/h   42% 0 mm WeatherDisplay:10.37 W/m2 BKN
14:36 14.9 °C 2.8 °C 1017.5 hPa WNW 3.7 km/h 3.7 km/h 44% 0 mm WeatherDisplay:10.37 W/m2 BKN
14:41 15.1 °C 2.6 °C 1017.2 hPa NW 1.9 km/h 1.9 km/h 43% 0 mm WeatherDisplay:10.37 W/m2 BKN
14:47 15.3 °C 2.8 °C 1017.2 hPa NNW 1.9 km/h   43% 0 mm WeatherDisplay:10.37 W/m2 BKN
14:57 15.3 °C 2.8 °C 1017.2 hPa NNW 3.7 km/h 3.7 km/h 43% 0 mm WeatherDisplay:10.37 W/m2 BKN
15:02 15.3 °C 3.4 °C 1017.2 hPa WNW 3.7 km/h   45% 0 mm WeatherDisplay:10.37 W/m2 CLR
15:12 15.4 °C 3.2 °C 1016.8 hPa West 1.9 km/h 1.9 km/h 44% 0 mm WeatherDisplay:10.37 W/m2 CLR
15:17 15.2 °C 2.7 °C 1016.8 hPa West 1.9 km/h   43% 0 mm WeatherDisplay:10.37 W/m2 CLR
15:22 15.3 °C 2.4 °C 1016.8 hPa WNW 1.9 km/h   42% 0 mm WeatherDisplay:10.37 W/m2 CLR
15:27 15.3 °C 2.5 °C 1016.8 hPa WNW 3.7 km/h 3.7 km/h 42% 0 mm WeatherDisplay:10.37 W/m2 CLR
15:32 15.2 °C 2.7 °C 1016.8 hPa WNW 3.7 km/h   43% 0 mm WeatherDisplay:10.37 W/m2 CLR
15:37 15.1 °C 2.9 °C 1016.8 hPa NNW 3.7 km/h   44% 0 mm WeatherDisplay:10.37 W/m2 CLR
15:42 15.1 °C 3.5 °C 1016.8 hPa Calm     46% 0 mm WeatherDisplay:10.37 W/m2 CLR
15:53 14.8 °C 3 °C 1016.8 hPa West 3.7 km/h   45% 0 mm WeatherDisplay:10.37 W/m2 CLR
15:58 14.7 °C 3.2 °C 1016.8 hPa West 1.9 km/h   46% 0 mm WeatherDisplay:10.37 W/m2 CLR
16:05 14.6 °C 3.7 °C 1016.8 hPa West 1.9 km/h   48% 0 mm WeatherDisplay:10.37 W/m2 CLR
16:10 14.3 °C 3.8 °C 1016.8 hPa West 1.9 km/h   49% 0 mm WeatherDisplay:10.37 W/m2 CLR
16:16 14.2 °C 3.9 °C 1016.8 hPa Calm     50% 0 mm WeatherDisplay:10.37 W/m2 CLR
16:21 14.1 °C 4.1 °C 1016.8 hPa Calm     51% 0 mm WeatherDisplay:10.37 W/m2 CLR
16:25 14.1 °C 3.8 °C 1016.8 hPa Calm   1.6 km/h 50% 0 mm WeatherDisplay:10.37 W/m2 CLR
16:30 13.9 °C 3.9 °C 1016.8 hPa West 1.9 km/h   51% 0 mm WeatherDisplay:10.37 W/m2 CLR
16:35 13.8 °C 3.8 °C 1016.8 hPa West 1.9 km/h   51% 0 mm WeatherDisplay:10.37 W/m2 CLR
16:40 13.7 °C 4.3 °C 1016.8 hPa Calm     53% 0 mm WeatherDisplay:10.37 W/m2 CLR
17:00 13.1 °C 4.3 °C 1016.8 hPa Calm     55% 0 mm WeatherDisplay:10.37 W/m2 CLR
17:05 13 °C 4.2 °C 1016.8 hPa Calm     55% 0 mm WeatherDisplay:10.37 W/m2 CLR
17:10 12.8 °C 4.3 °C 1016.8 hPa Calm     56% 0 mm WeatherDisplay:10.37 W/m2 CLR
17:15 12.7 °C 4.3 °C 1017.2 hPa Calm     57% 0 mm WeatherDisplay:10.37 W/m2 CLR
17:20 12.5 °C 4.2 °C 1016.8 hPa Calm     57% 0 mm WeatherDisplay:10.37 W/m2 CLR
17:26 12.3 °C 4.3 °C 1016.8 hPa Calm     58% 0 mm WeatherDisplay:10.37 W/m2 CLR
17:36 11.9 °C 4.1 °C 1016.8 hPa Calm     59% 0 mm WeatherDisplay:10.37 W/m2 CLR
17:41 11.6 °C 4.1 °C 1017.2 hPa Calm     60% 0 mm WeatherDisplay:10.37 W/m2 CLR
17:46 11.4 °C 4.1 °C 1017.2 hPa Calm     61% 0 mm WeatherDisplay:10.37 W/m2 CLR
17:51 11.3 °C 4 °C 1017.2 hPa Calm     61% 0 mm WeatherDisplay:10.37 W/m2 CLR
18:06 10.8 °C 4 °C 1017.5 hPa Calm     63% 0 mm WeatherDisplay:10.37 W/m2 CLR
18:11 10.6 °C 4.2 °C 1017.5 hPa Calm     65% 0 mm WeatherDisplay:10.37 W/m2 CLR
18:16 10.3 °C 4.3 °C 1017.5 hPa Calm     66% 0 mm WeatherDisplay:10.37 W/m2 CLR
18:21 10.1 °C 4.4 °C 1017.5 hPa Calm     68% 0 mm WeatherDisplay:10.37 W/m2 CLR
18:26 9.8 °C 4.4 °C 1017.5 hPa Calm     69% 0 mm WeatherDisplay:10.37 W/m2 CLR
18:37 9.4 °C 4.2 °C 1017.5 hPa Calm     70% 0 mm WeatherDisplay:10.37 W/m2 CLR
18:42 9.3 °C 4.3 °C 1017.5 hPa Calm     71% 0 mm WeatherDisplay:10.37 W/m2 CLR
18:47 9.1 °C 4.3 °C 1017.5 hPa Calm     72% 0 mm WeatherDisplay:10.37 W/m2 CLR
18:57 8.8 °C 4 °C 1017.5 hPa Calm     72% 0 mm WeatherDisplay:10.37 W/m2 CLR
19:02 8.6 °C 4.2 °C 1017.8 hPa Calm     74% 0 mm WeatherDisplay:10.37 W/m2 CLR
19:07 8.4 °C 4.3 °C 1017.8 hPa Calm     75% 0 mm WeatherDisplay:10.37 W/m2 CLR
19:12 8.3 °C 4.2 °C 1017.5 hPa Calm     75% 0 mm WeatherDisplay:10.37 W/m2 CLR
19:17 8.2 °C 4 °C 1017.5 hPa Calm     75% 0 mm WeatherDisplay:10.37 W/m2 CLR
19:22 8.1 °C 4.3 °C 1017.5 hPa Calm     77% 0 mm WeatherDisplay:10.37 W/m2 CLR
19:32 7.8 °C 4.1 °C 1017.8 hPa Calm     77% 0 mm WeatherDisplay:10.37 W/m2 CLR
19:37 7.8 °C 4.2 °C 1017.8 hPa Calm     78% 0 mm WeatherDisplay:10.37 W/m2 CLR
19:43 7.7 °C 4.3 °C 1017.8 hPa Calm     79% 0 mm WeatherDisplay:10.37 W/m2 CLR
19:48 7.6 °C 4.2 °C 1017.8 hPa Calm     79% 0 mm WeatherDisplay:10.37 W/m2 CLR
19:58 7.4 °C 4.2 °C 1017.8 hPa Calm     80% 0 mm WeatherDisplay:10.37 W/m2 CLR
20:13 7.2 °C 4.1 °C 1017.8 hPa Calm     81% 0 mm WeatherDisplay:10.37 W/m2 CLR
20:18 7.1 °C 4.1 °C 1017.8 hPa Calm     81% 0 mm WeatherDisplay:10.37 W/m2 CLR
20:23 7.1 °C 4 °C 1017.8 hPa Calm     81% 0 mm WeatherDisplay:10.37 W/m2 CLR
20:28 7.1 °C 4 °C 1017.8 hPa Calm     81% 0 mm WeatherDisplay:10.37 W/m2 CLR
20:33 7 °C 3.9 °C 1017.8 hPa Calm     81% 0 mm WeatherDisplay:10.37 W/m2 CLR
20:38 6.9 °C 3.9 °C 1017.8 hPa Calm     81% 0 mm WeatherDisplay:10.37 W/m2 CLR
20:43 6.8 °C 3.8 °C 1018.2 hPa Calm     81% 0 mm WeatherDisplay:10.37 W/m2 CLR
20:48 7.2 °C 4.1 °C 1018.2 hPa Calm     81% 0 mm WeatherDisplay:10.37 W/m2 CLR
20:59 7.3 °C 4.1 °C 1018.2 hPa Calm     80% 0 mm WeatherDisplay:10.37 W/m2 CLR
21:09 6.8 °C 3.8 °C 1018.2 hPa Calm     81% 0 mm WeatherDisplay:10.37 W/m2 CLR
21:14 6.7 °C 3.9 °C 1018.2 hPa Calm     82% 0 mm WeatherDisplay:10.37 W/m2 CLR
21:19 6.7 °C 4 °C 1018.2 hPa Calm     83% 0 mm WeatherDisplay:10.37 W/m2 CLR
21:24 6.6 °C 3.9 °C 1018.2 hPa Calm     83% 0 mm WeatherDisplay:10.37 W/m2 CLR
21:29 6.4 °C 3.6 °C 1018.2 hPa Calm     82% 0 mm WeatherDisplay:10.37 W/m2 CLR
21:34 6.2 °C 3.6 °C 1018.2 hPa Calm     83% 0 mm WeatherDisplay:10.37 W/m2 CLR
21:39 6.1 °C 3.4 °C 1018.2 hPa Calm     83% 0 mm WeatherDisplay:10.37 W/m2 CLR
21:44 6.1 °C 3.6 °C 1018.2 hPa Calm     84% 0 mm WeatherDisplay:10.37 W/m2 CLR
21:52 6 °C 3.5 °C 1018.2 hPa Calm     84% 0 mm WeatherDisplay:10.37 W/m2 CLR
21:57 5.9 °C 3.6 °C 1018.2 hPa Calm     85% 0 mm WeatherDisplay:10.37 W/m2 CLR
22:02 5.8 °C 3.3 °C 1018.2 hPa Calm     84% 0 mm WeatherDisplay:10.37 W/m2 CLR
22:07 5.8 °C 3.4 °C 1018.2 hPa Calm     85% 0 mm WeatherDisplay:10.37 W/m2 CLR
22:14 5.7 °C 3.3 °C 1018.2 hPa Calm     85% 0 mm WeatherDisplay:10.37 W/m2 CLR
22:24 5.5 °C 3.3 °C 1018.2 hPa Calm     86% 0 mm WeatherDisplay:10.37 W/m2 CLR
22:34 5.4 °C 3.4 °C 1018.2 hPa Calm     87% 0 mm WeatherDisplay:10.37 W/m2 CLR
22:36 5.4 °C 3.4 °C 1018.2 hPa Calm     87% 0 mm WeatherDisplay:10.37 W/m2 CLR
22:41 5.3 °C 3.2 °C 1018.2 hPa Calm     86% 0 mm WeatherDisplay:10.37 W/m2 CLR
22:56 5.2 °C 3.2 °C 1018.5 hPa Calm     87% 0 mm WeatherDisplay:10.37 W/m2 CLR
23:01 5.1 °C 3.1 °C 1018.5 hPa Calm     87% 0 mm WeatherDisplay:10.37 W/m2 CLR
23:07 5.1 °C 3.1 °C 1018.5 hPa Calm     87% 0 mm WeatherDisplay:10.37 W/m2 CLR
23:12 5 °C 3 °C 1018.2 hPa Calm     87% 0 mm WeatherDisplay:10.37 W/m2 CLR
23:17 4.9 °C 2.9 °C 1018.5 hPa Calm     87% 0 mm WeatherDisplay:10.37 W/m2 CLR
23:22 5.1 °C 3.2 °C 1018.5 hPa Calm     88% 0 mm WeatherDisplay:10.37 W/m2 CLR
23:27 5.1 °C 3.1 °C 1018.5 hPa Calm     87% 0 mm WeatherDisplay:10.37 W/m2 CLR
23:32 4.9 °C 2.9 °C 1018.5 hPa Calm     87% 0 mm WeatherDisplay:10.37 W/m2 CLR
23:37 4.8 °C 2.8 °C 1018.5 hPa Calm     87% 0 mm WeatherDisplay:10.37 W/m2 CLR
23:47 4.7 °C 2.8 °C 1018.5 hPa Calm     88% 0 mm WeatherDisplay:10.37 W/m2 CLR
Piedmont Bend
Compliments of Weather Underground - 4 mb